Time;durP1;ratioP1;P1;durP2;ratioP2;P2;SDS_P1;SDS_P2;PMS_P1;PMS_P2;Temp;Humidity;BMP_temperature;BMP_pressure;BME280_temperature;BME280_humidity;BME280_pressure;Samples;Min_cycle;Max_cycle;Signal;HPM_P1;HPM_P2
2020/12/15 00:00:29;;;;;;;14.97;8.40;;;;;;;;;;5076145;28;20587;-79
2020/12/15 00:02:57;;;;;;;13.33;8.63;;;;;;;;;;5078736;28;20337;-79
2020/12/15 00:05:25;;;;;;;14.97;9.00;;;;;;;;;;5057905;28;20233;-78
2020/12/15 00:07:53;;;;;;;13.87;8.23;;;;;;;;;;5054915;28;20232;-79
2020/12/15 00:10:21;;;;;;;13.33;9.43;;;;;;;;;;5061715;28;20223;-79
2020/12/15 00:12:48;;;;;;;13.47;8.13;;;;;;;;;;5058559;28;20234;-78
2020/12/15 00:15:16;;;;;;;13.83;8.87;;;;;;;;;;5058008;28;20231;-78
2020/12/15 00:17:44;;;;;;;13.27;8.80;;;;;;;;;;5057552;28;20223;-79
2020/12/15 00:20:11;;;;;;;11.30;7.43;;;;;;;;;;5047992;28;20238;-79
2020/12/15 00:22:39;;;;;;;13.03;7.27;;;;;;;;;;5040966;28;20219;-79
2020/12/15 00:25:08;;;;;;;12.70;7.33;;;;;;;;;;5062678;28;20230;-78
2020/12/15 00:27:35;;;;;;;11.27;7.53;;;;;;;;;;5060887;28;20231;-79
2020/12/15 00:30:03;;;;;;;10.87;6.90;;;;;;;;;;5062151;28;20233;-78
2020/12/15 00:32:31;;;;;;;12.23;7.63;;;;;;;;;;5061772;28;20218;-80
2020/12/15 00:34:58;;;;;;;12.23;7.50;;;;;;;;;;5063437;28;20235;-79
2020/12/15 00:37:26;;;;;;;13.13;7.97;;;;;;;;;;5057342;28;20236;-78
2020/12/15 00:39:53;;;;;;;13.67;8.43;;;;;;;;;;5065361;28;20219;-79
2020/12/15 00:42:22;;;;;;;14.57;8.23;;;;;;;;;;5061201;28;20222;-78
2020/12/15 00:44:49;;;;;;;15.17;8.17;;;;;;;;;;5061262;28;20235;-78
2020/12/15 00:47:17;;;;;;;14.60;8.57;;;;;;;;;;5048858;28;20230;-78
2020/12/15 00:49:45;;;;;;;15.50;9.30;;;;;;;;;;5066759;28;20230;-80
2020/12/15 00:52:13;;;;;;;14.53;8.70;;;;;;;;;;5080297;28;20231;-79
2020/12/15 00:54:41;;;;;;;15.23;8.77;;;;;;;;;;5063647;28;20227;-79
2020/12/15 00:57:08;;;;;;;18.20;10.03;;;;;;;;;;5064952;28;20233;-78
2020/12/15 00:59:36;;;;;;;20.70;10.20;;;;;;;;;;5068675;28;20222;-79
2020/12/15 01:02:05;;;;;;;17.33;9.23;;;;;;;;;;5048824;28;20230;-80
2020/12/15 01:04:33;;;;;;;14.10;9.20;;;;;;;;;;5072314;28;20940;-78
2020/12/15 01:07:04;;;;;;;20.20;9.43;;;;;;;;;;5081656;28;20237;-78
2020/12/15 01:09:32;;;;;;;19.13;10.40;;;;;;;;;;5078576;28;20705;-78
2020/12/15 01:12:00;;;;;;;16.27;9.47;;;;;;;;;;5037336;28;20234;-79
2020/12/15 01:14:29;;;;;;;17.80;10.23;;;;;;;;;;5064086;28;20231;-82
2020/12/15 01:16:57;;;;;;;18.27;10.03;;;;;;;;;;5067989;28;20224;-80
2020/12/15 01:19:25;;;;;;;15.90;9.33;;;;;;;;;;5093810;28;20238;-79
2020/12/15 01:21:53;;;;;;;18.97;9.43;;;;;;;;;;5079748;28;20230;-79
2020/12/15 01:24:26;;;;;;;16.70;8.70;;;;;;;;;;5081377;28;20219;-80
2020/12/15 01:27:17;;;;;;;18.47;10.13;;;;;;;;;;5024645;28;20306;-78
2020/12/15 01:30:00;;;;;;;15.77;8.50;;;;;;;;;;5055588;28;20226;-78
2020/12/15 01:32:48;;;;;;;13.27;8.27;;;;;;;;;;5059465;28;20222;-78
2020/12/15 01:35:18;;;;;;;15.33;8.40;;;;;;;;;;5063991;28;20222;-79
2020/12/15 01:37:47;;;;;;;15.17;8.90;;;;;;;;;;5062941;28;20222;-78
2020/12/15 01:40:21;;;;;;;13.37;8.33;;;;;;;;;;5044571;28;20229;-78
2020/12/15 01:42:49;;;;;;;13.00;7.70;;;;;;;;;;5065803;28;20588;-78
2020/12/15 01:45:16;;;;;;;14.33;7.93;;;;;;;;;;5063705;28;20223;-79
2020/12/15 01:47:44;;;;;;;12.10;7.50;;;;;;;;;;5042083;28;20230;-78
2020/12/15 01:50:14;;;;;;;13.93;8.63;;;;;;;;;;5057849;28;20230;-78
2020/12/15 01:52:43;;;;;;;15.13;8.07;;;;;;;;;;5062312;28;20235;-78
2020/12/15 01:55:16;;;;;;;12.07;7.90;;;;;;;;;;5052514;28;20223;-79
2020/12/15 01:58:03;;;;;;;13.87;7.50;;;;;;;;;;5063165;28;20218;-78
2020/12/15 02:00:37;;;;;;;11.70;7.70;;;;;;;;;;5059484;28;20222;-79
2020/12/15 02:03:14;;;;;;;12.83;8.20;;;;;;;;;;5053674;28;20234;-79
2020/12/15 02:06:01;;;;;;;15.40;8.20;;;;;;;;;;5064918;28;20226;-78
2020/12/15 02:08:38;;;;;;;10.67;7.00;;;;;;;;;;5051557;28;20234;-78
2020/12/15 02:11:06;;;;;;;12.63;8.07;;;;;;;;;;5069792;28;20234;-78
2020/12/15 02:13:36;;;;;;;11.73;7.90;;;;;;;;;;5048748;28;20230;-78
2020/12/15 02:16:07;;;;;;;14.40;8.10;;;;;;;;;;5047432;28;20230;-79
2020/12/15 02:18:35;;;;;;;15.27;8.57;;;;;;;;;;5078685;28;20590;-79
2020/12/15 02:21:07;;;;;;;12.20;8.40;;;;;;;;;;5045980;28;20218;-79
2020/12/15 02:23:44;;;;;;;16.10;8.57;;;;;;;;;;5067685;28;20730;-78
2020/12/15 02:26:33;;;;;;;14.97;7.17;;;;;;;;;;5061485;28;20227;-78
2020/12/15 02:29:02;;;;;;;15.57;8.20;;;;;;;;;;5044170;28;20242;-79
2020/12/15 02:31:30;;;;;;;14.53;8.63;;;;;;;;;;5062416;28;20234;-78
2020/12/15 02:33:58;;;;;;;14.33;8.37;;;;;;;;;;5042166;28;20617;-80
2020/12/15 02:36:29;;;;;;;12.97;8.50;;;;;;;;;;5062202;28;20679;-79
2020/12/15 02:39:09;;;;;;;14.13;8.40;;;;;;;;;;5056238;28;20234;-78
2020/12/15 02:41:41;;;;;;;15.17;8.33;;;;;;;;;;5064306;28;20230;-79
2020/12/15 02:44:11;;;;;;;12.63;7.70;;;;;;;;;;5073557;28;20207;-78
2020/12/15 02:46:46;;;;;;;15.27;8.87;;;;;;;;;;5073599;28;20241;-78
2020/12/15 02:49:14;;;;;;;12.13;7.20;;;;;;;;;;5046952;28;20230;-78
2020/12/15 02:51:45;;;;;;;16.10;8.57;;;;;;;;;;5061315;28;20305;-78
2020/12/15 02:54:22;;;;;;;14.70;8.47;;;;;;;;;;5075515;28;20215;-78
2020/12/15 02:56:49;;;;;;;14.97;8.47;;;;;;;;;;5047984;28;20223;-78
2020/12/15 02:59:17;;;;;;;13.53;7.83;;;;;;;;;;5045414;28;20235;-78
2020/12/15 03:01:46;;;;;;;15.03;8.00;;;;;;;;;;5042443;28;20235;-78
2020/12/15 03:04:15;;;;;;;12.07;7.20;;;;;;;;;;5060187;28;20231;-78
2020/12/15 03:06:46;;;;;;;15.63;8.20;;;;;;;;;;5036580;28;20223;-78
2020/12/15 03:09:25;;;;;;;21.23;9.17;;;;;;;;;;5060113;28;20234;-79
2020/12/15 03:11:57;;;;;;;17.87;9.60;;;;;;;;;;5041602;28;20225;-79
2020/12/15 03:14:36;;;;;;;21.17;10.00;;;;;;;;;;5043375;28;20230;-79
2020/12/15 03:17:08;;;;;;;17.47;8.60;;;;;;;;;;5043884;28;20345;-79
2020/12/15 03:19:37;;;;;;;17.17;9.20;;;;;;;;;;5056694;28;20227;-78
2020/12/15 03:22:05;;;;;;;19.23;9.00;;;;;;;;;;5063686;28;20230;-79
2020/12/15 03:24:40;;;;;;;21.57;9.10;;;;;;;;;;5060633;28;20235;-79
2020/12/15 03:27:09;;;;;;;29.70;10.10;;;;;;;;;;5060099;28;20235;-78
2020/12/15 03:29:38;;;;;;;59.07;10.60;;;;;;;;;;5073880;28;20874;-79
2020/12/15 03:32:07;;;;;;;47.23;10.90;;;;;;;;;;5054986;28;20708;-78
2020/12/15 03:34:36;;;;;;;24.27;8.53;;;;;;;;;;5060574;28;20230;-78
2020/12/15 03:37:04;;;;;;;29.73;10.40;;;;;;;;;;5041285;28;20253;-79
2020/12/15 03:39:40;;;;;;;73.70;11.07;;;;;;;;;;5038836;28;20227;-79
2020/12/15 03:42:20;;;;;;;68.90;10.33;;;;;;;;;;5055115;28;20237;-78
2020/12/15 03:44:48;;;;;;;44.40;10.60;;;;;;;;;;5056378;28;20238;-78
2020/12/15 03:47:17;;;;;;;21.97;9.33;;;;;;;;;;5048415;28;20233;-80
2020/12/15 03:49:45;;;;;;;48.93;11.90;;;;;;;;;;5058164;28;20234;-79
2020/12/15 03:52:14;;;;;;;23.50;8.40;;;;;;;;;;5054386;28;20223;-79
2020/12/15 03:55:00;;;;;;;42.17;9.60;;;;;;;;;;5041997;28;20230;-79
2020/12/15 03:57:58;;;;;;;26.67;8.23;;;;;;;;;;5033594;28;20613;-79
2020/12/15 04:00:35;;;;;;;32.03;9.20;;;;;;;;;;5050836;28;20720;-81
2020/12/15 04:03:17;;;;;;;23.50;8.40;;;;;;;;;;5019497;28;20231;-80
2020/12/15 04:05:59;;;;;;;21.30;8.60;;;;;;;;;;5058469;28;20333;-78
2020/12/15 04:08:30;;;;;;;28.13;9.10;;;;;;;;;;5059214;28;20222;-78
2020/12/15 04:11:00;;;;;;;18.60;8.77;;;;;;;;;;5041031;28;20223;-78
2020/12/15 04:13:44;;;;;;;16.90;8.87;;;;;;;;;;5052723;28;20223;-78
2020/12/15 04:16:14;;;;;;;14.20;8.17;;;;;;;;;;5036934;28;20226;-79
2020/12/15 04:18:53;;;;;;;14.17;7.63;;;;;;;;;;5048578;28;20476;-78
2020/12/15 04:21:23;;;;;;;16.43;8.50;;;;;;;;;;5023796;28;20236;-78
2020/12/15 04:23:54;;;;;;;13.60;8.10;;;;;;;;;;5043663;28;20215;-78
2020/12/15 04:26:25;;;;;;;12.93;7.90;;;;;;;;;;5075271;28;20229;-79
2020/12/15 04:28:56;;;;;;;13.60;7.97;;;;;;;;;;5082859;28;20239;-79
2020/12/15 04:31:28;;;;;;;15.27;7.80;;;;;;;;;;5069290;28;20218;-79
2020/12/15 04:33:58;;;;;;;14.87;8.07;;;;;;;;;;5052118;28;20233;-78
2020/12/15 04:36:26;;;;;;;15.23;8.33;;;;;;;;;;5039859;28;20223;-79
2020/12/15 04:38:54;;;;;;;13.27;8.03;;;;;;;;;;5063310;28;20223;-79
2020/12/15 04:41:33;;;;;;;14.63;8.13;;;;;;;;;;5054713;28;20227;-79
2020/12/15 04:44:01;;;;;;;15.23;8.43;;;;;;;;;;5063181;28;20231;-78
2020/12/15 04:46:41;;;;;;;13.33;7.00;;;;;;;;;;5064269;28;20227;-79
2020/12/15 04:49:09;;;;;;;14.80;8.43;;;;;;;;;;5060790;28;20221;-79
2020/12/15 04:51:56;;;;;;;11.83;7.37;;;;;;;;;;5085155;28;20246;-80
2020/12/15 04:54:35;;;;;;;14.33;7.87;;;;;;;;;;5054815;28;20226;-78
2020/12/15 04:57:14;;;;;;;16.27;8.13;;;;;;;;;;5068401;28;20229;-78
2020/12/15 04:59:47;;;;;;;14.03;8.10;;;;;;;;;;5053251;28;20237;-78
2020/12/15 05:02:25;;;;;;;17.43;9.63;;;;;;;;;;5050606;28;20238;-79
2020/12/15 05:04:55;;;;;;;16.93;8.97;;;;;;;;;;5088361;28;20211;-79
2020/12/15 05:07:23;;;;;;;22.03;10.17;;;;;;;;;;5084201;28;20231;-78
2020/12/15 05:10:22;;;;;;;19.33;9.27;;;;;;;;;;5061323;28;20246;-78
2020/12/15 05:13:15;;;;;;;20.17;9.90;;;;;;;;;;5063004;28;20250;-78
2020/12/15 05:15:43;;;;;;;21.77;10.57;;;;;;;;;;5050968;28;20223;-78
2020/12/15 05:18:37;;;;;;;20.40;10.63;;;;;;;;;;5061707;28;20238;-80
2020/12/15 05:21:13;;;;;;;22.40;10.13;;;;;;;;;;5081829;28;20242;-78
2020/12/15 05:23:45;;;;;;;24.47;11.03;;;;;;;;;;5064212;28;20234;-77
2020/12/15 05:26:21;;;;;;;22.97;10.53;;;;;;;;;;5064166;28;20229;-78
2020/12/15 05:29:05;;;;;;;54.70;11.73;;;;;;;;;;5063588;28;20704;-78
2020/12/15 05:31:40;;;;;;;23.97;10.30;;;;;;;;;;5060965;28;20218;-78
2020/12/15 05:34:35;;;;;;;24.43;10.47;;;;;;;;;;5058063;28;20254;-77
2020/12/15 05:37:22;;;;;;;36.13;11.27;;;;;;;;;;5068550;28;20219;-79
2020/12/15 05:39:59;;;;;;;23.67;11.30;;;;;;;;;;5069691;28;20231;-78
2020/12/15 05:42:32;;;;;;;21.57;10.27;;;;;;;;;;5067511;28;20701;-78
2020/12/15 05:45:03;;;;;;;28.93;11.40;;;;;;;;;;5073212;28;20606;-77
2020/12/15 05:47:35;;;;;;;21.80;10.27;;;;;;;;;;5046585;28;20500;-78
2020/12/15 05:50:07;;;;;;;24.83;10.83;;;;;;;;;;5065042;28;20223;-79
2020/12/15 05:52:34;;;;;;;46.87;12.90;;;;;;;;;;5047062;28;20626;-78
2020/12/15 05:55:06;;;;;;;43.23;13.20;;;;;;;;;;5071667;28;20227;-78
2020/12/15 05:57:34;;;;;;;25.40;12.00;;;;;;;;;;5072373;28;20238;-78
2020/12/15 06:00:09;;;;;;;27.80;10.93;;;;;;;;;;5064742;28;20223;-78
2020/12/15 06:02:42;;;;;;;30.80;11.50;;;;;;;;;;5074625;28;20226;-77
2020/12/15 06:05:10;;;;;;;27.70;11.47;;;;;;;;;;5065362;28;20266;-77
2020/12/15 06:07:38;;;;;;;28.20;10.73;;;;;;;;;;5050736;28;20231;-78
2020/12/15 06:10:06;;;;;;;43.37;12.07;;;;;;;;;;5024679;28;20231;-77
2020/12/15 06:12:33;;;;;;;38.03;11.13;;;;;;;;;;5048630;28;20220;-78
2020/12/15 06:15:03;;;;;;;39.27;10.27;;;;;;;;;;5052206;28;20238;-78
2020/12/15 06:17:32;;;;;;;29.30;12.10;;;;;;;;;;5070807;28;20595;-79
2020/12/15 06:20:00;;;;;;;38.67;12.40;;;;;;;;;;5050167;28;20727;-78
2020/12/15 06:22:28;;;;;;;25.87;12.33;;;;;;;;;;5066716;28;20231;-78
2020/12/15 06:24:57;;;;;;;26.47;10.30;;;;;;;;;;5068983;28;20313;-77
2020/12/15 06:27:32;;;;;;;21.30;10.63;;;;;;;;;;5065640;28;20237;-78
2020/12/15 06:30:00;;;;;;;25.10;10.90;;;;;;;;;;5068729;28;20226;-78
2020/12/15 06:32:28;;;;;;;21.20;9.70;;;;;;;;;;5076661;28;20230;-78
2020/12/15 06:34:57;;;;;;;23.43;10.87;;;;;;;;;;5054608;28;20223;-78
2020/12/15 06:37:25;;;;;;;21.37;10.27;;;;;;;;;;5074714;28;20230;-78
2020/12/15 06:39:55;;;;;;;19.73;10.40;;;;;;;;;;5062787;28;20372;-78
2020/12/15 06:42:36;;;;;;;21.13;10.43;;;;;;;;;;5070648;28;20226;-78
2020/12/15 06:45:07;;;;;;;23.93;10.77;;;;;;;;;;5067970;28;20268;-78
2020/12/15 06:47:35;;;;;;;24.57;10.43;;;;;;;;;;5042616;28;20704;-78
2020/12/15 06:50:12;;;;;;;26.53;11.87;;;;;;;;;;5045564;28;20573;-78
2020/12/15 06:52:40;;;;;;;27.87;10.93;;;;;;;;;;5046913;28;20234;-78
2020/12/15 06:55:07;;;;;;;27.50;11.60;;;;;;;;;;5063080;28;20223;-78
2020/12/15 06:57:36;;;;;;;22.70;12.00;;;;;;;;;;5046567;28;20226;-78
2020/12/15 07:00:07;;;;;;;31.37;12.60;;;;;;;;;;5066160;28;20210;-78
2020/12/15 07:02:34;;;;;;;25.43;10.77;;;;;;;;;;5059090;28;20227;-78
2020/12/15 07:05:20;;;;;;;21.47;9.53;;;;;;;;;;5064938;28;20305;-78
2020/12/15 07:07:49;;;;;;;22.00;10.97;;;;;;;;;;5057698;28;20223;-79
2020/12/15 07:10:17;;;;;;;20.43;9.90;;;;;;;;;;5062375;28;20231;-78
2020/12/15 07:12:46;;;;;;;23.80;10.23;;;;;;;;;;5057208;28;20214;-79
2020/12/15 07:15:14;;;;;;;19.63;10.57;;;;;;;;;;5052033;28;20703;-78
2020/12/15 07:17:46;;;;;;;20.93;10.80;;;;;;;;;;5058382;28;21035;-78
2020/12/15 07:20:14;;;;;;;19.33;9.37;;;;;;;;;;5036354;28;20227;-79
2020/12/15 07:22:42;;;;;;;18.33;9.10;;;;;;;;;;5048212;28;20480;-78
2020/12/15 07:25:11;;;;;;;22.87;10.13;;;;;;;;;;5057891;28;20615;-80
2020/12/15 07:27:39;;;;;;;19.30;9.83;;;;;;;;;;5053456;28;20223;-80
2020/12/15 07:30:08;;;;;;;19.27;9.80;;;;;;;;;;5055073;28;20713;-79
2020/12/15 07:32:36;;;;;;;16.80;9.37;;;;;;;;;;5062599;28;20475;-79
2020/12/15 07:35:05;;;;;;;18.43;9.90;;;;;;;;;;5054029;28;20237;-79
2020/12/15 07:37:36;;;;;;;19.63;9.47;;;;;;;;;;5050406;28;20210;-79
2020/12/15 07:40:06;;;;;;;16.53;9.03;;;;;;;;;;5069390;28;21306;-79
2020/12/15 07:42:34;;;;;;;16.50;9.07;;;;;;;;;;5054450;28;20219;-79
2020/12/15 07:45:04;;;;;;;20.33;9.67;;;;;;;;;;5045086;28;20425;-79
2020/12/15 07:47:38;;;;;;;20.83;9.67;;;;;;;;;;5057196;28;20230;-79
2020/12/15 07:50:07;;;;;;;17.60;10.27;;;;;;;;;;5052750;28;20233;-79
2020/12/15 07:52:36;;;;;;;17.87;9.13;;;;;;;;;;5055494;28;20231;-79
2020/12/15 07:55:07;;;;;;;24.57;9.80;;;;;;;;;;5050719;28;20237;-79
2020/12/15 07:57:37;;;;;;;20.70;9.20;;;;;;;;;;5029005;28;20219;-79
2020/12/15 08:00:10;;;;;;;17.70;10.27;;;;;;;;;;5028052;28;20628;-79
2020/12/15 08:02:41;;;;;;;15.87;9.43;;;;;;;;;;5032439;28;20234;-79
2020/12/15 08:05:14;;;;;;;20.67;9.80;;;;;;;;;;5033376;28;20295;-79
2020/12/15 08:07:46;;;;;;;18.23;9.53;;;;;;;;;;5016580;28;20231;-78
2020/12/15 08:10:25;;;;;;;19.83;9.47;;;;;;;;;;5055213;28;20234;-78
2020/12/15 08:12:55;;;;;;;16.57;9.20;;;;;;;;;;5049673;28;20236;-78
2020/12/15 08:15:23;;;;;;;17.30;9.10;;;;;;;;;;5057570;28;20257;-79
2020/12/15 08:17:51;;;;;;;17.27;9.80;;;;;;;;;;5058704;28;20253;-79
2020/12/15 08:20:23;;;;;;;16.27;9.17;;;;;;;;;;5038868;28;20665;-78
2020/12/15 08:23:03;;;;;;;14.10;8.67;;;;;;;;;;5054261;28;20214;-78
2020/12/15 08:25:33;;;;;;;18.17;8.93;;;;;;;;;;5044573;28;20230;-79
2020/12/15 08:28:07;;;;;;;19.87;9.37;;;;;;;;;;5039458;28;20219;-78
2020/12/15 08:30:35;;;;;;;16.90;9.67;;;;;;;;;;5047567;28;20234;-78
2020/12/15 08:33:04;;;;;;;18.60;9.70;;;;;;;;;;5045643;28;20227;-78
2020/12/15 08:35:32;;;;;;;21.17;10.47;;;;;;;;;;5056801;28;20230;-78
2020/12/15 08:38:02;;;;;;;22.20;10.17;;;;;;;;;;5057059;28;20220;-78
2020/12/15 08:40:30;;;;;;;20.73;10.23;;;;;;;;;;5059758;28;20222;-78
2020/12/15 08:43:00;;;;;;;20.53;10.60;;;;;;;;;;5063063;28;20587;-78
2020/12/15 08:45:28;;;;;;;18.77;9.13;;;;;;;;;;5084285;28;20253;-79
2020/12/15 08:47:57;;;;;;;18.50;9.93;;;;;;;;;;5072753;28;20208;-78
2020/12/15 08:50:26;;;;;;;20.00;10.07;;;;;;;;;;5070814;28;20217;-78
2020/12/15 08:53:04;;;;;;;18.53;10.23;;;;;;;;;;5060441;28;20822;-78
2020/12/15 08:55:33;;;;;;;17.87;10.27;;;;;;;;;;5049560;28;20238;-78
2020/12/15 08:58:02;;;;;;;17.13;9.77;;;;;;;;;;5044008;28;20586;-78
2020/12/15 09:00:33;;;;;;;17.00;8.97;;;;;;;;;;5040544;28;20226;-78
2020/12/15 09:03:08;;;;;;;19.10;9.63;;;;;;;;;;5057744;28;20250;-78
2020/12/15 09:05:48;;;;;;;18.57;9.60;;;;;;;;;;5070683;28;20230;-78
2020/12/15 09:08:17;;;;;;;18.30;9.47;;;;;;;;;;5042918;28;20227;-78
2020/12/15 09:10:44;;;;;;;18.63;9.97;;;;;;;;;;5062460;28;20227;-79
2020/12/15 09:13:13;;;;;;;17.30;9.67;;;;;;;;;;5064714;28;20666;-78
2020/12/15 09:15:48;;;;;;;15.87;9.10;;;;;;;;;;5067661;28;20230;-78
2020/12/15 09:18:16;;;;;;;17.70;9.73;;;;;;;;;;5051722;28;20222;-78
2020/12/15 09:20:43;;;;;;;17.53;10.30;;;;;;;;;;5070515;28;20419;-79
2020/12/15 09:23:11;;;;;;;13.77;8.30;;;;;;;;;;5070360;28;20244;-79
2020/12/15 09:25:40;;;;;;;14.00;8.57;;;;;;;;;;5064278;28;20230;-78
2020/12/15 09:28:08;;;;;;;15.23;8.53;;;;;;;;;;5052253;28;20223;-79
2020/12/15 09:30:36;;;;;;;17.87;10.10;;;;;;;;;;5070834;28;20242;-78
2020/12/15 09:33:09;;;;;;;15.50;9.53;;;;;;;;;;5066041;28;20233;-78
2020/12/15 09:35:37;;;;;;;17.20;9.73;;;;;;;;;;5070231;28;20597;-77
2020/12/15 09:38:04;;;;;;;16.20;9.53;;;;;;;;;;5066767;28;20627;-78
2020/12/15 09:40:32;;;;;;;15.17;9.50;;;;;;;;;;5068626;28;20223;-79
2020/12/15 09:43:00;;;;;;;17.47;9.60;;;;;;;;;;5059050;28;20739;-79
2020/12/15 09:45:27;;;;;;;16.07;9.97;;;;;;;;;;5083937;28;20580;-79
2020/12/15 09:47:59;;;;;;;17.33;9.77;;;;;;;;;;5065721;28;20230;-79
2020/12/15 09:50:27;;;;;;;16.83;8.67;;;;;;;;;;5063153;28;20227;-77
2020/12/15 09:52:56;;;;;;;15.53;8.80;;;;;;;;;;5045812;28;20713;-78
2020/12/15 09:55:23;;;;;;;15.37;9.77;;;;;;;;;;5056455;28;20241;-78
2020/12/15 09:57:51;;;;;;;18.80;10.33;;;;;;;;;;5066758;28;20225;-79
2020/12/15 10:00:19;;;;;;;18.03;10.33;;;;;;;;;;5047343;28;20234;-79
2020/12/15 10:02:47;;;;;;;16.10;9.60;;;;;;;;;;5051052;28;20240;-78
2020/12/15 10:05:16;;;;;;;14.73;8.43;;;;;;;;;;5049883;28;20738;-78
2020/12/15 10:07:43;;;;;;;12.80;9.03;;;;;;;;;;5058924;28;20226;-79
2020/12/15 10:10:12;;;;;;;14.80;8.80;;;;;;;;;;5048309;28;20219;-79
2020/12/15 10:12:45;;;;;;;14.10;8.47;;;;;;;;;;5058451;28;20248;-77
2020/12/15 10:15:13;;;;;;;16.73;9.17;;;;;;;;;;5063633;28;20522;-78
2020/12/15 10:17:41;;;;;;;15.37;8.30;;;;;;;;;;5057963;28;20230;-78
2020/12/15 10:20:09;;;;;;;13.20;9.80;;;;;;;;;;5035394;28;20219;-77
2020/12/15 10:22:38;;;;;;;16.83;9.03;;;;;;;;;;5032951;28;20229;-80
2020/12/15 10:25:05;;;;;;;24.50;9.07;;;;;;;;;;5055067;28;20234;-78
2020/12/15 10:27:33;;;;;;;16.43;8.83;;;;;;;;;;5048900;28;20223;-78
2020/12/15 10:30:01;;;;;;;10.97;8.03;;;;;;;;;;5058804;28;20227;-77
2020/12/15 10:32:30;;;;;;;14.03;8.10;;;;;;;;;;5042741;28;20664;-78
2020/12/15 10:34:57;;;;;;;14.27;8.80;;;;;;;;;;5059582;28;20227;-78
2020/12/15 10:37:25;;;;;;;14.70;8.60;;;;;;;;;;5058108;28;20225;-78
2020/12/15 10:39:54;;;;;;;13.10;8.57;;;;;;;;;;5063068;28;20223;-78
2020/12/15 10:42:26;;;;;;;12.67;8.00;;;;;;;;;;5033823;28;20226;-78
2020/12/15 10:44:53;;;;;;;12.30;7.60;;;;;;;;;;5056648;28;20590;-78
2020/12/15 10:47:21;;;;;;;14.73;8.57;;;;;;;;;;5057422;28;20234;-78
2020/12/15 10:49:49;;;;;;;14.97;8.57;;;;;;;;;;5058199;28;20708;-78
2020/12/15 10:52:17;;;;;;;16.87;8.77;;;;;;;;;;5040719;28;20222;-77
2020/12/15 10:54:45;;;;;;;13.60;8.83;;;;;;;;;;5046545;28;20848;-78
2020/12/15 10:57:13;;;;;;;13.10;8.97;;;;;;;;;;5073029;28;20222;-78
2020/12/15 10:59:41;;;;;;;16.43;9.60;;;;;;;;;;5047128;28;20241;-77
2020/12/15 11:02:09;;;;;;;13.50;8.07;;;;;;;;;;5058060;28;20222;-78
2020/12/15 11:04:37;;;;;;;15.73;9.50;;;;;;;;;;5057349;28;20702;-78
2020/12/15 11:07:05;;;;;;;13.23;8.57;;;;;;;;;;5048682;28;20224;-78
2020/12/15 11:09:32;;;;;;;14.27;8.43;;;;;;;;;;5057594;28;20239;-78
2020/12/15 11:12:00;;;;;;;12.10;8.23;;;;;;;;;;5080443;28;20229;-79
2020/12/15 11:14:30;;;;;;;12.13;8.33;;;;;;;;;;5085470;28;20222;-79
2020/12/15 11:17:04;;;;;;;17.80;9.00;;;;;;;;;;5058252;28;20246;-79
2020/12/15 11:19:31;;;;;;;13.60;8.63;;;;;;;;;;5050523;28;20231;-82
2020/12/15 11:21:59;;;;;;;17.10;9.33;;;;;;;;;;5050405;28;20227;-78
2020/12/15 11:24:27;;;;;;;15.30;8.80;;;;;;;;;;5050664;28;20227;-78
2020/12/15 11:26:56;;;;;;;18.43;10.47;;;;;;;;;;5058696;28;20601;-78
2020/12/15 11:29:23;;;;;;;16.73;9.20;;;;;;;;;;5045727;28;20223;-78
2020/12/15 11:31:52;;;;;;;16.00;9.17;;;;;;;;;;5049772;28;20231;-78
2020/12/15 11:34:20;;;;;;;13.37;8.33;;;;;;;;;;5043163;28;20235;-78
2020/12/15 11:36:53;;;;;;;12.33;7.90;;;;;;;;;;5058475;28;20222;-79
2020/12/15 11:39:21;;;;;;;11.33;7.60;;;;;;;;;;5061189;28;20711;-79
2020/12/15 11:41:48;;;;;;;11.70;8.07;;;;;;;;;;5056271;28;20226;-79
2020/12/15 11:44:18;;;;;;;14.97;7.87;;;;;;;;;;5065289;28;20230;-80
2020/12/15 11:47:00;;;;;;;11.10;8.00;;;;;;;;;;5050070;28;20321;-78
2020/12/15 11:49:36;;;;;;;12.13;8.40;;;;;;;;;;5047895;28;20237;-78
2020/12/15 11:52:03;;;;;;;12.23;7.97;;;;;;;;;;5048178;28;20235;-78
2020/12/15 11:54:31;;;;;;;10.27;7.87;;;;;;;;;;5034674;28;20230;-78
2020/12/15 11:56:58;;;;;;;18.27;8.20;;;;;;;;;;5030740;28;20718;-79
2020/12/15 11:59:26;;;;;;;12.83;8.20;;;;;;;;;;5053368;28;20226;-79
2020/12/15 12:01:54;;;;;;;13.03;7.90;;;;;;;;;;5038478;28;20253;-78
2020/12/15 12:04:22;;;;;;;12.17;7.60;;;;;;;;;;5058375;28;20239;-79
2020/12/15 12:06:50;;;;;;;11.53;7.97;;;;;;;;;;5070617;28;20210;-78
2020/12/15 12:09:17;;;;;;;11.43;8.10;;;;;;;;;;5079214;28;20237;-78
2020/12/15 12:11:44;;;;;;;12.23;8.87;;;;;;;;;;5031270;28;20701;-78
2020/12/15 12:14:12;;;;;;;12.60;8.07;;;;;;;;;;5039185;28;20246;-79
2020/12/15 12:16:39;;;;;;;13.23;8.10;;;;;;;;;;5034749;28;20226;-78
2020/12/15 12:19:07;;;;;;;13.77;8.80;;;;;;;;;;5058913;28;20226;-78
2020/12/15 12:21:37;;;;;;;10.77;7.67;;;;;;;;;;5056572;28;20231;-79
2020/12/15 12:24:05;;;;;;;12.87;7.67;;;;;;;;;;5049390;28;20219;-78
2020/12/15 12:26:32;;;;;;;12.17;8.90;;;;;;;;;;5040921;28;20226;-78
2020/12/15 12:29:00;;;;;;;12.77;8.83;;;;;;;;;;5051236;28;20239;-78
2020/12/15 12:31:28;;;;;;;14.87;8.63;;;;;;;;;;5040515;28;20230;-78
2020/12/15 12:33:55;;;;;;;14.23;8.73;;;;;;;;;;5062157;28;20231;-78
2020/12/15 12:36:23;;;;;;;22.53;9.27;;;;;;;;;;5046139;28;20496;-78
2020/12/15 12:38:51;;;;;;;13.17;9.43;;;;;;;;;;5037569;28;20233;-78
2020/12/15 12:41:20;;;;;;;16.30;9.00;;;;;;;;;;5064075;28;20719;-80
2020/12/15 12:43:48;;;;;;;10.27;7.63;;;;;;;;;;5061055;28;20222;-77
2020/12/15 12:46:16;;;;;;;12.03;8.93;;;;;;;;;;5047095;28;20219;-77
2020/12/15 12:48:43;;;;;;;10.67;7.80;;;;;;;;;;5047412;28;20215;-78
2020/12/15 12:51:11;;;;;;;14.73;8.53;;;;;;;;;;5039559;28;21015;-79
2020/12/15 12:53:41;;;;;;;11.27;7.57;;;;;;;;;;5055598;28;20700;-79
2020/12/15 12:56:10;;;;;;;12.87;8.50;;;;;;;;;;5047620;28;20222;-79
2020/12/15 12:58:38;;;;;;;11.37;7.63;;;;;;;;;;5036552;28;20715;-79
2020/12/15 13:01:06;;;;;;;12.43;8.37;;;;;;;;;;5054419;28;20222;-79
2020/12/15 13:03:34;;;;;;;10.50;7.53;;;;;;;;;;5042784;28;20223;-79
2020/12/15 13:06:02;;;;;;;13.40;8.10;;;;;;;;;;5061080;28;20704;-79
2020/12/15 13:08:30;;;;;;;12.00;8.57;;;;;;;;;;5057336;28;20321;-80
2020/12/15 13:10:58;;;;;;;11.17;8.40;;;;;;;;;;5070746;28;20230;-79
2020/12/15 13:13:26;;;;;;;13.87;9.13;;;;;;;;;;5041690;28;20223;-80
2020/12/15 13:15:54;;;;;;;14.87;8.90;;;;;;;;;;5056019;28;20222;-80
2020/12/15 13:18:21;;;;;;;11.53;7.97;;;;;;;;;;5064350;28;20261;-80
2020/12/15 13:20:49;;;;;;;9.87;7.77;;;;;;;;;;5042163;28;20227;-80
2020/12/15 13:23:17;;;;;;;10.87;7.53;;;;;;;;;;5061307;28;20806;-80
2020/12/15 13:25:45;;;;;;;13.77;9.30;;;;;;;;;;5045022;28;20231;-80
2020/12/15 13:28:12;;;;;;;11.57;8.07;;;;;;;;;;5053712;28;20226;-78
2020/12/15 13:30:41;;;;;;;10.73;8.00;;;;;;;;;;5067250;28;20229;-78
2020/12/15 13:33:09;;;;;;;12.07;8.13;;;;;;;;;;5057190;28;20234;-80
2020/12/15 13:35:37;;;;;;;12.43;8.70;;;;;;;;;;5060181;28;20253;-78
2020/12/15 13:38:04;;;;;;;10.47;8.40;;;;;;;;;;5039646;28;20327;-78
2020/12/15 13:40:32;;;;;;;11.27;7.67;;;;;;;;;;5068688;28;20234;-79
2020/12/15 13:43:00;;;;;;;14.07;7.83;;;;;;;;;;5053019;28;20225;-78
2020/12/15 13:45:27;;;;;;;10.43;7.70;;;;;;;;;;5060265;28;20230;-78
2020/12/15 13:48:15;;;;;;;10.80;7.57;;;;;;;;;;5044113;28;20421;-78
2020/12/15 13:50:43;;;;;;;9.87;7.60;;;;;;;;;;5048139;28;20224;-78
2020/12/15 13:53:10;;;;;;;12.83;7.80;;;;;;;;;;5033573;28;20223;-78
2020/12/15 13:55:38;;;;;;;8.70;6.67;;;;;;;;;;5033849;28;21085;-78
2020/12/15 13:58:05;;;;;;;10.27;6.80;;;;;;;;;;5060933;28;20223;-78
2020/12/15 14:00:35;;;;;;;9.73;6.70;;;;;;;;;;5061501;28;20716;-78
2020/12/15 14:03:02;;;;;;;9.83;6.80;;;;;;;;;;5052203;28;21298;-79
2020/12/15 14:05:31;;;;;;;10.30;7.33;;;;;;;;;;5040140;28;21343;-78
2020/12/15 14:07:58;;;;;;;10.00;7.27;;;;;;;;;;5046898;28;20592;-79
2020/12/15 14:10:26;;;;;;;8.57;6.63;;;;;;;;;;5046755;28;20593;-78
2020/12/15 14:12:53;;;;;;;10.50;6.60;;;;;;;;;;5060454;28;20219;-79
2020/12/15 14:15:21;;;;;;;8.53;6.20;;;;;;;;;;5052191;28;20789;-78
2020/12/15 14:17:49;;;;;;;10.57;6.60;;;;;;;;;;5035372;28;20226;-79
2020/12/15 14:20:16;;;;;;;10.27;6.53;;;;;;;;;;5066019;28;20229;-79
2020/12/15 14:22:45;;;;;;;8.10;6.27;;;;;;;;;;5061087;28;20226;-79
2020/12/15 14:25:12;;;;;;;8.40;5.50;;;;;;;;;;5049086;28;20238;-79
2020/12/15 14:27:40;;;;;;;7.10;4.90;;;;;;;;;;5057345;28;20608;-79
2020/12/15 14:30:08;;;;;;;7.70;5.80;;;;;;;;;;5038356;28;20234;-79
2020/12/15 14:32:35;;;;;;;8.20;5.17;;;;;;;;;;5056207;28;20230;-79
2020/12/15 14:35:03;;;;;;;8.10;5.80;;;;;;;;;;5056536;28;20226;-79
2020/12/15 14:37:30;;;;;;;9.13;5.47;;;;;;;;;;5052964;28;20223;-78
2020/12/15 14:39:59;;;;;;;7.87;5.87;;;;;;;;;;5053351;28;20419;-79
2020/12/15 14:42:26;;;;;;;7.77;6.17;;;;;;;;;;5032080;28;20241;-79
2020/12/15 14:44:54;;;;;;;9.57;5.93;;;;;;;;;;5041655;28;20219;-80
2020/12/15 14:47:21;;;;;;;10.53;6.87;;;;;;;;;;5051185;28;20231;-79